Time,TemperatureF,DewpointF,PressureIn,WindDirection,WindDirectionDegrees,WindSpeedMPH,WindSpeedGustMPH,Humidity,HourlyPrecipIn,Conditions,Clouds,dailyrainin,SoftwareType,DateUTC
2013-06-11 00:02:00,66.0,59.0,29.80,WNW,286,0.0,0.0,77,0.00,,,0.00,,2013-06-11 05:02:00,
2013-06-11 00:12:00,66.0,59.0,29.80,WNW,286,0.0,0.0,77,0.00,,,0.00,,2013-06-11 05:12:00,
2013-06-11 00:22:00,66.0,59.0,29.81,WNW,286,1.0,4.0,79,0.00,,,0.00,,2013-06-11 05:22:00,
2013-06-11 00:32:00,66.0,59.0,29.81,WNW,286,0.0,4.0,79,0.00,,,0.00,,2013-06-11 05:32:00,
2013-06-11 00:42:00,66.0,59.0,29.81,WNW,286,0.0,4.0,79,0.00,,,0.00,,2013-06-11 05:42:00,
2013-06-11 00:52:00,66.0,60.0,29.82,WNW,286,1.0,5.0,80,0.00,,,0.00,,2013-06-11 05:52:00,
2013-06-11 01:02:00,66.0,59.0,29.82,WNW,286,0.0,2.0,79,0.00,,,0.00,,2013-06-11 06:02:00,
2013-06-11 01:12:00,66.0,59.0,29.82,WNW,286,0.0,2.0,79,0.00,,,0.00,,2013-06-11 06:12:00,
2013-06-11 01:22:00,66.0,59.0,29.82,WNW,286,0.0,2.0,79,0.00,,,0.00,,2013-06-11 06:22:00,
2013-06-11 01:32:00,65.0,59.0,29.82,WNW,286,0.0,3.0,81,0.00,,,0.00,,2013-06-11 06:32:00,
2013-06-11 01:42:00,65.0,59.0,29.82,WNW,286,0.0,4.0,81,0.00,,,0.00,,2013-06-11 06:42:00,
2013-06-11 01:52:00,65.0,59.0,29.82,WNW,286,0.0,4.0,81,0.00,,,0.00,,2013-06-11 06:52:00,
2013-06-11 02:02:00,65.0,59.0,29.82,WNW,286,0.0,3.0,81,0.00,,,0.00,,2013-06-11 07:02:00,
2013-06-11 02:12:00,64.0,58.0,29.83,WNW,286,0.0,4.0,82,0.00,,,0.00,,2013-06-11 07:12:00,
2013-06-11 02:22:00,64.0,58.0,29.83,WNW,286,0.0,4.0,82,0.00,,,0.00,,2013-06-11 07:22:00,
2013-06-11 02:32:00,64.0,59.0,29.82,WNW,286,0.0,1.0,83,0.00,,,0.00,,2013-06-11 07:32:00,
2013-06-11 02:42:00,63.0,58.0,29.83,WNW,286,0.0,3.0,85,0.00,,,0.00,,2013-06-11 07:42:00,
2013-06-11 02:52:00,63.0,58.0,29.83,WNW,286,0.0,3.0,85,0.00,,,0.00,,2013-06-11 07:52:00,
2013-06-11 03:02:00,63.0,58.0,29.83,WNW,286,0.0,4.0,85,0.00,,,0.00,,2013-06-11 08:02:00,
2013-06-11 03:12:00,63.0,58.0,29.83,WNW,286,0.0,4.0,85,0.00,,,0.00,,2013-06-11 08:12:00,
2013-06-11 03:22:00,63.0,58.0,29.83,WNW,286,1.0,5.0,85,0.00,,,0.00,,2013-06-11 08:22:00,
2013-06-11 03:32:00,63.0,58.0,29.84,WNW,286,0.0,3.0,85,0.00,,,0.00,,2013-06-11 08:32:00,
2013-06-11 03:42:00,63.0,58.0,29.84,WNW,286,0.0,3.0,85,0.00,,,0.00,,2013-06-11 08:42:00,
2013-06-11 03:52:00,63.0,58.0,29.84,WNW,286,0.0,3.0,85,0.00,,,0.00,,2013-06-11 08:52:00,
2013-06-11 04:02:00,63.0,59.0,29.85,West,274,0.0,5.0,86,0.00,,,0.00,,2013-06-11 09:02:00,
2013-06-11 04:12:00,63.0,59.0,29.85,West,274,0.0,5.0,86,0.00,,,0.00,,2013-06-11 09:12:00,
2013-06-11 04:22:00,63.0,58.0,29.85,West,264,2.0,8.0,85,0.00,,,0.00,,2013-06-11 09:22:00,
2013-06-11 04:33:00,63.0,59.0,29.85,West,261,3.0,7.0,86,0.00,,,0.00,,2013-06-11 09:33:00,
2013-06-11 04:43:00,63.0,59.0,29.86,West,261,1.0,7.0,86,0.00,,,0.00,,2013-06-11 09:43:00,
2013-06-11 04:53:00,63.0,59.0,29.86,West,261,1.0,7.0,86,0.00,,,0.00,,2013-06-11 09:53:00,
2013-06-11 05:03:00,63.0,59.0,29.87,West,262,2.0,7.0,86,0.00,,,0.00,,2013-06-11 10:03:00,
2013-06-11 05:12:00,63.0,59.0,29.87,West,262,2.0,7.0,86,0.00,,,0.00,,2013-06-11 10:12:00,
2013-06-11 05:22:00,62.0,58.0,29.87,West,262,0.0,5.0,87,0.00,,,0.00,,2013-06-11 10:22:00,
2013-06-11 05:33:00,62.0,58.0,29.86,West,262,0.0,0.0,88,0.00,,,0.00,,2013-06-11 10:33:00,
2013-06-11 05:42:00,62.0,58.0,29.86,West,262,0.0,0.0,88,0.00,,,0.00,,2013-06-11 10:42:00,
2013-06-11 05:52:00,62.0,58.0,29.86,West,262,0.0,0.0,88,0.00,,,0.00,,2013-06-11 10:52:00,
2013-06-11 06:02:00,62.0,58.0,29.86,West,262,0.0,0.0,88,0.00,,,0.00,,2013-06-11 11:02:00,
2013-06-11 06:12:00,62.0,58.0,29.86,West,262,0.0,0.0,88,0.00,,,0.00,,2013-06-11 11:12:00,
2013-06-11 06:22:00,62.0,59.0,29.86,West,262,0.0,0.0,89,0.00,,,0.00,,2013-06-11 11:22:00,
2013-06-11 06:32:00,63.0,60.0,29.87,West,262,0.0,0.0,89,0.00,,,0.00,,2013-06-11 11:32:00,
2013-06-11 06:42:00,63.0,60.0,29.87,West,262,0.0,0.0,89,0.00,,,0.00,,2013-06-11 11:42:00,
2013-06-11 06:52:00,64.0,60.0,29.88,West,262,0.0,1.0,87,0.00,,,0.00,,2013-06-11 11:52:00,
2013-06-11 07:02:00,65.0,61.0,29.88,West,262,0.0,3.0,86,0.00,,,0.00,,2013-06-11 12:02:00,
2013-06-11 07:12:00,66.0,61.0,29.88,West,262,1.0,6.0,83,0.00,,,0.00,,2013-06-11 12:12:00,
2013-06-11 07:22:00,66.0,61.0,29.88,West,262,1.0,6.0,83,0.00,,,0.00,,2013-06-11 12:22:00,
2013-06-11 07:32:00,67.0,61.0,29.88,West,262,0.0,5.0,81,0.00,,,0.00,,2013-06-11 12:32:00,
2013-06-11 07:42:00,68.0,62.0,29.88,West,262,0.0,5.0,80,0.00,,,0.00,,2013-06-11 12:42:00,
2013-06-11 07:52:00,68.0,62.0,29.88,West,262,0.0,5.0,80,0.00,,,0.00,,2013-06-11 12:52:00,
2013-06-11 08:02:00,70.0,62.0,29.88,West,262,4.0,6.0,77,0.00,,,0.00,,2013-06-11 13:02:00,
2013-06-11 08:12:00,70.0,62.0,29.88,West,262,4.0,6.0,77,0.00,,,0.00,,2013-06-11 13:12:00,
2013-06-11 08:22:00,71.0,62.0,29.88,West,262,0.0,6.0,74,0.00,,,0.00,,2013-06-11 13:22:00,
2013-06-11 08:32:00,72.0,62.0,29.88,West,262,0.0,4.0,72,0.00,,,0.00,,2013-06-11 13:32:00,
2013-06-11 08:42:00,72.0,62.0,29.88,West,262,0.0,4.0,72,0.00,,,0.00,,2013-06-11 13:42:00,
2013-06-11 08:52:00,74.0,63.0,29.89,West,262,3.0,6.0,68,0.00,,,0.00,,2013-06-11 13:52:00,
2013-06-11 09:02:00,74.0,62.0,29.89,West,279,3.0,7.0,66,0.00,,,0.00,,2013-06-11 14:02:00,
2013-06-11 09:12:00,74.0,62.0,29.89,West,279,3.0,7.0,66,0.00,,,0.00,,2013-06-11 14:12:00,
2013-06-11 09:22:00,75.0,62.0,29.89,West,275,5.0,10.0,63,0.00,,,0.00,,2013-06-11 14:22:00,
2013-06-11 09:32:00,76.0,62.0,29.88,West,259,3.0,8.0,63,0.00,,,0.00,,2013-06-11 14:32:00,
2013-06-11 09:42:00,76.0,62.0,29.86,WSW,247,0.0,3.0,61,0.00,,,0.00,,2013-06-11 14:42:00,
2013-06-11 09:52:00,76.0,62.0,29.86,WSW,247,0.0,3.0,61,0.00,,,0.00,,2013-06-11 14:52:00,
2013-06-11 10:02:00,77.0,63.0,29.86,SSE,153,1.0,6.0,61,0.00,,,0.00,,2013-06-11 15:02:00,
2013-06-11 10:12:00,77.0,63.0,29.86,SE,138,2.0,6.0,61,0.00,,,0.00,,2013-06-11 15:12:00,
2013-06-11 10:22:00,77.0,63.0,29.86,SE,138,2.0,6.0,61,0.00,,,0.00,,2013-06-11 15:22:00,
2013-06-11 10:33:00,78.0,62.0,29.86,SSE,151,0.0,6.0,57,0.00,,,0.00,,2013-06-11 15:33:00,
2013-06-11 10:42:00,78.0,62.0,29.86,SSE,151,0.0,6.0,57,0.00,,,0.00,,2013-06-11 15:42:00,
2013-06-11 10:53:00,79.0,61.0,29.86,SSW,192,3.0,8.0,55,0.00,,,0.00,,2013-06-11 15:53:00,
2013-06-11 11:03:00,80.0,62.0,29.86,SW,231,5.0,10.0,54,0.00,,,0.00,,2013-06-11 16:03:00,
2013-06-11 11:12:00,80.0,62.0,29.86,SW,231,5.0,10.0,54,0.00,,,0.00,,2013-06-11 16:12:00,
2013-06-11 11:22:00,81.0,62.0,29.86,SSW,204,8.0,15.0,52,0.00,,,0.00,,2013-06-11 16:22:00,
2013-06-11 11:32:00,81.0,61.0,29.86,South,180,5.0,10.0,51,0.00,,,0.00,,2013-06-11 16:32:00,
2013-06-11 11:42:00,82.0,63.0,29.86,South,173,4.0,14.0,53,0.00,,,0.00,,2013-06-11 16:42:00,
2013-06-11 11:52:00,82.0,63.0,29.86,South,173,4.0,14.0,53,0.00,,,0.00,,2013-06-11 16:52:00,
2013-06-11 12:02:00,82.0,63.0,29.85,SW,219,7.0,17.0,52,0.00,,,0.00,,2013-06-11 17:02:00,
2013-06-11 12:12:00,82.0,63.0,29.85,SW,219,7.0,17.0,52,0.00,,,0.00,,2013-06-11 17:12:00,
2013-06-11 12:22:00,83.0,62.0,29.85,South,191,10.0,16.0,50,0.00,,,0.00,,2013-06-11 17:22:00,
2013-06-11 12:32:00,83.0,61.0,29.85,SW,234,5.0,14.0,48,0.00,,,0.00,,2013-06-11 17:32:00,
2013-06-11 12:43:00,84.0,63.0,29.85,SSE,168,8.0,16.0,49,0.00,,,0.00,,2013-06-11 17:43:00,
2013-06-11 12:52:00,84.0,63.0,29.85,SSE,168,8.0,16.0,49,0.00,,,0.00,,2013-06-11 17:52:00,
2013-06-11 13:02:00,83.0,62.0,29.84,South,188,6.0,15.0,50,0.00,,,0.00,,2013-06-11 18:02:00,
2013-06-11 13:12:00,83.0,62.0,29.84,South,188,6.0,15.0,50,0.00,,,0.00,,2013-06-11 18:12:00,
2013-06-11 13:22:00,84.0,62.0,29.83,South,188,7.0,11.0,47,0.00,,,0.00,,2013-06-11 18:22:00,
2013-06-11 13:32:00,84.0,63.0,29.82,South,171,9.0,12.0,49,0.00,,,0.00,,2013-06-11 18:32:00,
2013-06-11 13:42:00,84.0,63.0,29.82,South,171,9.0,12.0,49,0.00,,,0.00,,2013-06-11 18:42:00,
2013-06-11 13:52:00,84.0,62.0,29.81,SE,141,8.0,14.0,47,0.00,,,0.00,,2013-06-11 18:52:00,
2013-06-11 14:02:00,85.0,63.0,29.81,South,178,8.0,15.0,48,0.00,,,0.00,,2013-06-11 19:02:00,
2013-06-11 14:12:00,85.0,63.0,29.81,South,178,8.0,15.0,48,0.00,,,0.00,,2013-06-11 19:12:00,
2013-06-11 14:22:00,85.0,62.0,29.81,South,186,10.0,16.0,47,0.00,,,0.00,,2013-06-11 19:22:00,
2013-06-11 14:32:00,86.0,64.0,29.83,SSE,168,7.0,16.0,48,0.00,,,0.00,,2013-06-11 19:32:00,
2013-06-11 14:42:00,86.0,64.0,29.83,SSE,168,7.0,16.0,48,0.00,,,0.00,,2013-06-11 19:42:00,
2013-06-11 14:52:00,85.0,63.0,29.85,SSW,210,10.0,17.0,48,0.00,,,0.00,,2013-06-11 19:52:00,
2013-06-11 15:03:00,84.0,64.0,29.85,SSW,206,9.0,17.0,51,0.00,,,0.00,,2013-06-11 20:03:00,
2013-06-11 15:12:00,84.0,64.0,29.85,SSW,206,9.0,17.0,51,0.00,,,0.00,,2013-06-11 20:12:00,
2013-06-11 15:22:00,85.0,65.0,29.82,South,180,10.0,16.0,52,0.00,,,0.00,,2013-06-11 20:22:00,
2013-06-11 15:32:00,84.0,64.0,29.80,SSW,196,8.0,17.0,52,0.00,,,0.00,,2013-06-11 20:32:00,
2013-06-11 15:42:00,84.0,64.0,29.80,SSW,196,8.0,17.0,52,0.00,,,0.00,,2013-06-11 20:42:00,
2013-06-11 15:52:00,84.0,66.0,29.79,South,177,13.0,20.0,54,0.00,,,0.00,,2013-06-11 20:52:00,
2013-06-11 16:02:00,84.0,67.0,29.77,SSE,158,12.0,21.0,57,0.00,,,0.00,,2013-06-11 21:02:00,
2013-06-11 16:12:00,84.0,67.0,29.77,SSE,158,12.0,21.0,57,0.00,,,0.00,,2013-06-11 21:12:00,
2013-06-11 16:22:00,84.0,68.0,29.77,South,179,13.0,22.0,58,0.00,,,0.00,,2013-06-11 21:22:00,
2013-06-11 16:33:00,85.0,68.0,29.76,South,178,15.0,21.0,57,0.00,,,0.00,,2013-06-11 21:33:00,
2013-06-11 16:42:00,85.0,68.0,29.76,South,178,15.0,21.0,57,0.00,,,0.00,,2013-06-11 21:42:00,
2013-06-11 16:52:00,84.0,69.0,29.76,SSW,206,13.0,21.0,60,0.00,,,0.00,,2013-06-11 21:52:00,
2013-06-11 17:03:00,84.0,69.0,29.76,South,173,13.0,22.0,60,0.00,,,0.00,,2013-06-11 22:03:00,
2013-06-11 17:12:00,84.0,69.0,29.76,South,173,13.0,22.0,60,0.00,,,0.00,,2013-06-11 22:12:00,
2013-06-11 17:22:00,84.0,69.0,29.77,South,178,8.0,18.0,60,0.00,,,0.00,,2013-06-11 22:22:00,
2013-06-11 17:32:00,83.0,69.0,29.80,SW,223,6.0,10.0,63,0.00,,,0.00,,2013-06-11 22:32:00,
2013-06-11 17:42:00,83.0,69.0,29.80,SW,223,6.0,10.0,63,0.00,,,0.00,,2013-06-11 22:42:00,
2013-06-11 17:52:00,83.0,69.0,29.80,SSW,213,11.0,16.0,62,0.00,,,0.00,,2013-06-11 22:52:00,
2013-06-11 18:02:00,82.0,69.0,29.81,SSW,198,8.0,12.0,65,0.00,,,0.00,,2013-06-11 23:02:00,
2013-06-11 18:12:00,82.0,69.0,29.81,SSW,198,8.0,12.0,65,0.00,,,0.00,,2013-06-11 23:12:00,
2013-06-11 18:22:00,81.0,69.0,29.80,SSW,196,8.0,11.0,66,0.00,,,0.00,,2013-06-11 23:22:00,
2013-06-11 18:32:00,81.0,69.0,29.78,South,183,8.0,12.0,68,0.00,,,0.00,,2013-06-11 23:32:00,
2013-06-11 18:42:00,81.0,69.0,29.78,South,170,6.0,11.0,67,0.00,,,0.00,,2013-06-11 23:42:00,
2013-06-11 18:52:00,81.0,69.0,29.78,South,170,6.0,11.0,67,0.00,,,0.00,,2013-06-11 23:52:00,
2013-06-11 19:02:00,83.0,70.0,29.78,SSW,192,5.0,11.0,66,0.00,,,0.00,,2013-06-12 00:02:00,
2013-06-11 19:12:00,83.0,70.0,29.78,SSE,154,3.0,10.0,65,0.00,,,0.00,,2013-06-12 00:12:00,
2013-06-11 19:22:00,83.0,70.0,29.78,SSE,154,3.0,10.0,65,0.00,,,0.00,,2013-06-12 00:22:00,
2013-06-11 19:32:00,82.0,69.0,29.78,SSE,167,4.0,11.0,66,0.00,,,0.00,,2013-06-12 00:32:00,
2013-06-11 19:42:00,82.0,69.0,29.78,SSE,167,4.0,11.0,66,0.00,,,0.00,,2013-06-12 00:42:00,
2013-06-11 19:52:00,81.0,69.0,29.78,SSE,165,3.0,8.0,68,0.00,,,0.00,,2013-06-12 00:52:00,
2013-06-11 20:02:00,81.0,70.0,29.77,SSE,156,1.0,7.0,70,0.00,,,0.00,,2013-06-12 01:02:00,
2013-06-11 20:12:00,81.0,70.0,29.77,SSE,156,1.0,7.0,70,0.00,,,0.00,,2013-06-12 01:12:00,
2013-06-11 20:22:00,80.0,69.0,29.77,SE,146,4.0,8.0,70,0.00,,,0.00,,2013-06-12 01:22:00,
2013-06-11 20:32:00,80.0,70.0,29.77,SSE,150,4.0,7.0,72,0.00,,,0.00,,2013-06-12 01:32:00,
2013-06-11 20:42:00,80.0,70.0,29.77,SSE,150,4.0,7.0,72,0.00,,,0.00,,2013-06-12 01:42:00,
2013-06-11 20:52:00,79.0,70.0,29.75,SSE,150,5.0,9.0,73,0.00,,,0.00,,2013-06-12 01:52:00,
2013-06-11 21:02:00,78.0,69.0,29.76,SSE,160,4.0,10.0,74,0.00,,,0.00,,2013-06-12 02:02:00,
2013-06-11 21:12:00,78.0,69.0,29.76,SSE,160,4.0,10.0,74,0.00,,,0.00,,2013-06-12 02:12:00,
2013-06-11 21:22:00,78.0,69.0,29.76,SSE,153,5.0,8.0,75,0.00,,,0.00,,2013-06-12 02:22:00,
2013-06-11 21:32:00,78.0,70.0,29.77,SSE,157,5.0,8.0,76,0.00,,,0.00,,2013-06-12 02:32:00,
2013-06-11 21:42:00,77.0,69.0,29.77,SSE,153,6.0,10.0,77,0.00,,,0.00,,2013-06-12 02:42:00,
2013-06-11 21:52:00,77.0,69.0,29.77,SSE,153,6.0,10.0,77,0.00,,,0.00,,2013-06-12 02:52:00,
2013-06-11 22:02:00,77.0,70.0,29.77,SSE,149,6.0,9.0,78,0.00,,,0.00,,2013-06-12 03:02:00,
2013-06-11 22:12:00,76.0,69.0,29.78,SSE,150,4.0,7.0,79,0.00,,,0.00,,2013-06-12 03:12:00,
2013-06-11 22:22:00,76.0,69.0,29.78,SSE,150,4.0,7.0,79,0.00,,,0.00,,2013-06-12 03:22:00,
2013-06-11 22:32:00,76.0,70.0,29.78,SE,142,4.0,7.0,81,0.00,,,0.00,,2013-06-12 03:32:00,
2013-06-11 22:42:00,76.0,70.0,29.78,SE,142,4.0,7.0,81,0.00,,,0.00,,2013-06-12 03:42:00,
2013-06-11 22:53:00,76.0,70.0,29.78,SE,143,3.0,8.0,81,0.00,,,0.00,,2013-06-12 03:53:00,
2013-06-11 23:03:00,75.0,69.0,29.78,SE,143,0.0,5.0,82,0.00,,,0.00,,2013-06-12 04:03:00,
2013-06-11 23:13:00,75.0,69.0,29.78,SE,143,0.0,5.0,82,0.00,,,0.00,,2013-06-12 04:13:00,
2013-06-11 23:23:00,75.0,69.0,29.78,SE,143,3.0,6.0,83,0.00,,,0.00,,2013-06-12 04:23:00,
2013-06-11 23:33:00,74.0,69.0,29.78,SSE,149,3.0,6.0,84,0.00,,,0.00,,2013-06-12 04:33:00,
2013-06-11 23:42:00,74.0,69.0,29.78,SSE,161,4.0,6.0,84,0.00,,,0.00,,2013-06-12 04:42:00,
2013-06-11 23:52:00,74.0,69.0,29.78,SSE,161,4.0,6.0,84,0.00,,,0.00,,2013-06-12 04:52:00,